sensor_id;sensor_type;location;lat;lon;timestamp;temperature;humidity
17208;DHT22;8720;48.488;9.202;2023-06-14T00:00:44;18.10;27.50
17208;DHT22;8720;48.488;9.202;2023-06-14T00:03:15;18.00;27.60
17208;DHT22;8720;48.488;9.202;2023-06-14T00:05:43;18.00;27.80
17208;DHT22;8720;48.488;9.202;2023-06-14T00:08:12;17.90;28.00
17208;DHT22;8720;48.488;9.202;2023-06-14T00:10:40;17.90;28.20
17208;DHT22;8720;48.488;9.202;2023-06-14T00:13:08;17.80;28.30
17208;DHT22;8720;48.488;9.202;2023-06-14T00:15:36;17.80;28.40
17208;DHT22;8720;48.488;9.202;2023-06-14T00:18:04;17.70;28.50
17208;DHT22;8720;48.488;9.202;2023-06-14T00:20:33;17.60;28.80
17208;DHT22;8720;48.488;9.202;2023-06-14T00:23:00;17.60;28.80
17208;DHT22;8720;48.488;9.202;2023-06-14T00:25:28;17.60;28.90
17208;DHT22;8720;48.488;9.202;2023-06-14T00:27:56;17.50;29.10
17208;DHT22;8720;48.488;9.202;2023-06-14T00:30:24;17.40;29.30
17208;DHT22;8720;48.488;9.202;2023-06-14T00:32:56;17.40;29.50
17208;DHT22;8720;48.488;9.202;2023-06-14T00:35:25;17.30;29.50
17208;DHT22;8720;48.488;9.202;2023-06-14T00:37:54;17.20;29.70
17208;DHT22;8720;48.488;9.202;2023-06-14T00:40:21;17.20;30.00
17208;DHT22;8720;48.488;9.202;2023-06-14T00:42:49;17.10;30.20
17208;DHT22;8720;48.488;9.202;2023-06-14T00:45:16;17.00;30.30
17208;DHT22;8720;48.488;9.202;2023-06-14T00:47:44;17.00;30.50
17208;DHT22;8720;48.488;9.202;2023-06-14T00:50:13;16.90;30.50
17208;DHT22;8720;48.488;9.202;2023-06-14T00:52:40;16.80;30.30
17208;DHT22;8720;48.488;9.202;2023-06-14T00:55:09;16.80;30.60
17208;DHT22;8720;48.488;9.202;2023-06-14T00:57:37;16.70;31.20
17208;DHT22;8720;48.488;9.202;2023-06-14T01:00:07;16.70;31.30
17208;DHT22;8720;48.488;9.202;2023-06-14T01:02:36;16.60;31.50
17208;DHT22;8720;48.488;9.202;2023-06-14T01:05:04;16.60;31.30
17208;DHT22;8720;48.488;9.202;2023-06-14T01:07:41;16.50;31.50
17208;DHT22;8720;48.488;9.202;2023-06-14T01:10:29;16.50;32.20
17208;DHT22;8720;48.488;9.202;2023-06-14T01:13:07;16.40;32.30
17208;DHT22;8720;48.488;9.202;2023-06-14T01:15:39;16.30;32.10
17208;DHT22;8720;48.488;9.202;2023-06-14T01:18:09;16.30;31.90
17208;DHT22;8720;48.488;9.202;2023-06-14T01:20:43;16.20;31.80
17208;DHT22;8720;48.488;9.202;2023-06-14T01:23:16;16.20;31.50
17208;DHT22;8720;48.488;9.202;2023-06-14T01:25:44;16.10;31.50
17208;DHT22;8720;48.488;9.202;2023-06-14T01:28:13;16.10;31.50
17208;DHT22;8720;48.488;9.202;2023-06-14T01:30:45;16.00;31.80
17208;DHT22;8720;48.488;9.202;2023-06-14T01:33:17;16.00;32.20
17208;DHT22;8720;48.488;9.202;2023-06-14T01:35:49;16.00;32.20
17208;DHT22;8720;48.488;9.202;2023-06-14T01:38:20;15.90;32.20
17208;DHT22;8720;48.488;9.202;2023-06-14T01:40:50;15.90;32.50
17208;DHT22;8720;48.488;9.202;2023-06-14T01:43:20;15.90;32.60
17208;DHT22;8720;48.488;9.202;2023-06-14T01:45:48;15.90;32.70
17208;DHT22;8720;48.488;9.202;2023-06-14T01:48:19;15.80;32.70
17208;DHT22;8720;48.488;9.202;2023-06-14T01:50:48;15.80;32.90
17208;DHT22;8720;48.488;9.202;2023-06-14T01:53:16;15.80;33.00
17208;DHT22;8720;48.488;9.202;2023-06-14T01:55:44;15.70;33.30
17208;DHT22;8720;48.488;9.202;2023-06-14T01:58:14;15.70;33.50
17208;DHT22;8720;48.488;9.202;2023-06-14T02:05:59;15.50;33.70
17208;DHT22;8720;48.488;9.202;2023-06-14T02:08:26;15.50;34.00
17208;DHT22;8720;48.488;9.202;2023-06-14T02:10:55;15.40;34.00
17208;DHT22;8720;48.488;9.202;2023-06-14T02:13:22;15.40;34.20
17208;DHT22;8720;48.488;9.202;2023-06-14T02:15:50;15.40;34.30
17208;DHT22;8720;48.488;9.202;2023-06-14T02:18:21;15.30;34.40
17208;DHT22;8720;48.488;9.202;2023-06-14T02:20:50;15.30;34.50
17208;DHT22;8720;48.488;9.202;2023-06-14T02:23:17;15.20;34.40
17208;DHT22;8720;48.488;9.202;2023-06-14T02:25:44;15.20;34.50
17208;DHT22;8720;48.488;9.202;2023-06-14T02:28:13;15.10;34.50
17208;DHT22;8720;48.488;9.202;2023-06-14T02:30:40;15.10;34.80
17208;DHT22;8720;48.488;9.202;2023-06-14T02:33:07;15.10;34.50
17208;DHT22;8720;48.488;9.202;2023-06-14T02:35:39;15.00;34.50
17208;DHT22;8720;48.488;9.202;2023-06-14T02:38:07;15.00;34.50
17208;DHT22;8720;48.488;9.202;2023-06-14T02:40:34;14.90;34.40
17208;DHT22;8720;48.488;9.202;2023-06-14T02:43:01;14.90;34.50
17208;DHT22;8720;48.488;9.202;2023-06-14T02:45:30;14.90;34.70
17208;DHT22;8720;48.488;9.202;2023-06-14T02:47:57;14.80;35.20
17208;DHT22;8720;48.488;9.202;2023-06-14T02:50:24;14.80;35.00
17208;DHT22;8720;48.488;9.202;2023-06-14T02:52:54;14.70;35.00
17208;DHT22;8720;48.488;9.202;2023-06-14T02:55:22;14.70;35.10
17208;DHT22;8720;48.488;9.202;2023-06-14T02:57:50;14.70;35.30
17208;DHT22;8720;48.488;9.202;2023-06-14T03:00:19;14.60;35.20
17208;DHT22;8720;48.488;9.202;2023-06-14T03:02:49;14.60;35.10
17208;DHT22;8720;48.488;9.202;2023-06-14T03:05:17;14.50;35.40
17208;DHT22;8720;48.488;9.202;2023-06-14T03:07:47;14.50;35.50
17208;DHT22;8720;48.488;9.202;2023-06-14T03:10:16;14.50;35.60
17208;DHT22;8720;48.488;9.202;2023-06-14T03:12:44;14.50;35.60
17208;DHT22;8720;48.488;9.202;2023-06-14T03:15:14;14.40;35.70
17208;DHT22;8720;48.488;9.202;2023-06-14T03:17:46;14.40;36.10
17208;DHT22;8720;48.488;9.202;2023-06-14T03:20:17;14.40;36.30
17208;DHT22;8720;48.488;9.202;2023-06-14T03:22:46;14.40;36.50
17208;DHT22;8720;48.488;9.202;2023-06-14T03:25:14;14.30;36.30
17208;DHT22;8720;48.488;9.202;2023-06-14T03:27:44;14.30;36.40
17208;DHT22;8720;48.488;9.202;2023-06-14T03:30:12;14.30;36.40
17208;DHT22;8720;48.488;9.202;2023-06-14T03:32:40;14.30;36.50
17208;DHT22;8720;48.488;9.202;2023-06-14T03:35:08;14.20;36.50
17208;DHT22;8720;48.488;9.202;2023-06-14T03:37:44;14.20;36.70
17208;DHT22;8720;48.488;9.202;2023-06-14T03:40:13;14.20;36.90
17208;DHT22;8720;48.488;9.202;2023-06-14T03:42:44;14.20;36.90
17208;DHT22;8720;48.488;9.202;2023-06-14T03:45:12;14.10;36.70
17208;DHT22;8720;48.488;9.202;2023-06-14T03:47:40;14.20;36.90
17208;DHT22;8720;48.488;9.202;2023-06-14T03:50:09;14.10;37.00
17208;DHT22;8720;48.488;9.202;2023-06-14T03:52:37;14.20;37.40
17208;DHT22;8720;48.488;9.202;2023-06-14T03:55:06;14.20;37.60
17208;DHT22;8720;48.488;9.202;2023-06-14T03:57:34;14.10;37.90
17208;DHT22;8720;48.488;9.202;2023-06-14T04:00:05;14.20;37.90
17208;DHT22;8720;48.488;9.202;2023-06-14T04:02:40;14.20;38.10
17208;DHT22;8720;48.488;9.202;2023-06-14T04:05:09;14.20;38.10
17208;DHT22;8720;48.488;9.202;2023-06-14T04:07:42;14.30;38.20
17208;DHT22;8720;48.488;9.202;2023-06-14T04:10:12;14.30;38.00
17208;DHT22;8720;48.488;9.202;2023-06-14T04:12:40;14.30;38.30
17208;DHT22;8720;48.488;9.202;2023-06-14T04:15:08;14.40;38.40
17208;DHT22;8720;48.488;9.202;2023-06-14T04:17:37;14.40;38.40
17208;DHT22;8720;48.488;9.202;2023-06-14T04:20:09;14.50;38.50
17208;DHT22;8720;48.488;9.202;2023-06-14T04:22:37;14.50;38.20
17208;DHT22;8720;48.488;9.202;2023-06-14T04:25:06;14.60;38.00
17208;DHT22;8720;48.488;9.202;2023-06-14T04:27:35;14.60;37.90
17208;DHT22;8720;48.488;9.202;2023-06-14T04:30:06;14.70;38.00
17208;DHT22;8720;48.488;9.202;2023-06-14T04:32:38;14.80;37.90
17208;DHT22;8720;48.488;9.202;2023-06-14T04:35:07;14.80;37.70
17208;DHT22;8720;48.488;9.202;2023-06-14T04:37:37;14.90;37.90
17208;DHT22;8720;48.488;9.202;2023-06-14T04:40:09;15.20;38.20
17208;DHT22;8720;48.488;9.202;2023-06-14T04:42:39;15.50;38.60
17208;DHT22;8720;48.488;9.202;2023-06-14T04:45:11;16.10;39.00
17208;DHT22;8720;48.488;9.202;2023-06-14T04:47:40;16.80;39.10
17208;DHT22;8720;48.488;9.202;2023-06-14T04:50:09;17.50;38.80
17208;DHT22;8720;48.488;9.202;2023-06-14T04:52:39;18.40;38.50
17208;DHT22;8720;48.488;9.202;2023-06-14T04:55:08;19.20;37.60
17208;DHT22;8720;48.488;9.202;2023-06-14T04:57:35;20.10;36.80
17208;DHT22;8720;48.488;9.202;2023-06-14T05:00:07;20.90;36.10
17208;DHT22;8720;48.488;9.202;2023-06-14T05:02:37;21.60;35.10
17208;DHT22;8720;48.488;9.202;2023-06-14T05:05:06;22.40;35.00
17208;DHT22;8720;48.488;9.202;2023-06-14T05:07:34;23.10;34.20
17208;DHT22;8720;48.488;9.202;2023-06-14T05:10:03;23.90;33.60
17208;DHT22;8720;48.488;9.202;2023-06-14T05:12:31;24.50;32.50
17208;DHT22;8720;48.488;9.202;2023-06-14T05:15:00;25.20;31.70
17208;DHT22;8720;48.488;9.202;2023-06-14T05:17:29;25.80;30.80
17208;DHT22;8720;48.488;9.202;2023-06-14T05:19:56;26.30;30.00
17208;DHT22;8720;48.488;9.202;2023-06-14T05:22:23;26.80;29.50
17208;DHT22;8720;48.488;9.202;2023-06-14T05:24:51;27.30;29.00
17208;DHT22;8720;48.488;9.202;2023-06-14T05:27:18;27.70;28.60
17208;DHT22;8720;48.488;9.202;2023-06-14T05:29:45;28.10;28.30
17208;DHT22;8720;48.488;9.202;2023-06-14T05:32:13;28.50;27.90
17208;DHT22;8720;48.488;9.202;2023-06-14T05:34:42;28.90;27.50
17208;DHT22;8720;48.488;9.202;2023-06-14T05:37:10;29.30;26.40
17208;DHT22;8720;48.488;9.202;2023-06-14T05:39:38;29.50;26.60
17208;DHT22;8720;48.488;9.202;2023-06-14T05:42:06;29.80;26.30
17208;DHT22;8720;48.488;9.202;2023-06-14T05:44:34;30.10;26.20
17208;DHT22;8720;48.488;9.202;2023-06-14T05:47:01;30.30;25.90
17208;DHT22;8720;48.488;9.202;2023-06-14T05:49:29;30.50;25.80
17208;DHT22;8720;48.488;9.202;2023-06-14T05:51:58;30.60;25.60
17208;DHT22;8720;48.488;9.202;2023-06-14T05:54:25;30.90;25.00
17208;DHT22;8720;48.488;9.202;2023-06-14T05:56:53;31.10;25.00
17208;DHT22;8720;48.488;9.202;2023-06-14T05:59:20;31.40;24.80
17208;DHT22;8720;48.488;9.202;2023-06-14T06:01:47;31.60;24.60
17208;DHT22;8720;48.488;9.202;2023-06-14T06:04:15;31.80;24.10
17208;DHT22;8720;48.488;9.202;2023-06-14T06:06:42;32.00;23.90
17208;DHT22;8720;48.488;9.202;2023-06-14T06:09:11;32.40;23.20
17208;DHT22;8720;48.488;9.202;2023-06-14T06:11:40;32.70;22.90
17208;DHT22;8720;48.488;9.202;2023-06-14T06:14:07;33.00;22.70
17208;DHT22;8720;48.488;9.202;2023-06-14T06:16:34;33.20;22.20
17208;DHT22;8720;48.488;9.202;2023-06-14T06:19:02;33.50;21.90
17208;DHT22;8720;48.488;9.202;2023-06-14T06:21:29;33.70;21.80
17208;DHT22;8720;48.488;9.202;2023-06-14T06:23:57;33.90;21.60
17208;DHT22;8720;48.488;9.202;2023-06-14T06:26:26;34.10;21.50
17208;DHT22;8720;48.488;9.202;2023-06-14T06:28:53;34.30;21.30
17208;DHT22;8720;48.488;9.202;2023-06-14T06:31:21;34.50;21.10
17208;DHT22;8720;48.488;9.202;2023-06-14T06:33:49;34.70;21.00
17208;DHT22;8720;48.488;9.202;2023-06-14T06:36:16;34.90;20.80
17208;DHT22;8720;48.488;9.202;2023-06-14T06:38:43;35.10;20.50
17208;DHT22;8720;48.488;9.202;2023-06-14T06:41:11;35.30;20.30
17208;DHT22;8720;48.488;9.202;2023-06-14T06:43:40;35.50;20.10
17208;DHT22;8720;48.488;9.202;2023-06-14T06:46:08;35.60;19.90
17208;DHT22;8720;48.488;9.202;2023-06-14T06:48:36;35.80;19.90
17208;DHT22;8720;48.488;9.202;2023-06-14T06:51:03;36.00;19.80
17208;DHT22;8720;48.488;9.202;2023-06-14T06:53:31;36.10;19.10
17208;DHT22;8720;48.488;9.202;2023-06-14T06:55:58;36.20;19.00
17208;DHT22;8720;48.488;9.202;2023-06-14T06:58:25;36.20;19.00
17208;DHT22;8720;48.488;9.202;2023-06-14T07:00:54;36.20;18.90
17208;DHT22;8720;48.488;9.202;2023-06-14T07:03:21;36.20;18.70
17208;DHT22;8720;48.488;9.202;2023-06-14T07:05:49;36.20;18.70
17208;DHT22;8720;48.488;9.202;2023-06-14T07:08:16;36.30;18.80
17208;DHT22;8720;48.488;9.202;2023-06-14T07:10:43;36.30;18.60
17208;DHT22;8720;48.488;9.202;2023-06-14T07:13:10;36.20;18.50
17208;DHT22;8720;48.488;9.202;2023-06-14T07:15:38;36.10;18.60
17208;DHT22;8720;48.488;9.202;2023-06-14T07:18:06;36.10;18.80
17208;DHT22;8720;48.488;9.202;2023-06-14T07:20:34;36.00;18.50
17208;DHT22;8720;48.488;9.202;2023-06-14T07:23:03;36.00;18.50
17208;DHT22;8720;48.488;9.202;2023-06-14T07:25:31;36.00;18.30
17208;DHT22;8720;48.488;9.202;2023-06-14T07:27:59;36.00;18.30
17208;DHT22;8720;48.488;9.202;2023-06-14T07:30:26;35.90;18.20
17208;DHT22;8720;48.488;9.202;2023-06-14T07:32:55;35.90;18.40
17208;DHT22;8720;48.488;9.202;2023-06-14T07:35:24;35.90;18.60
17208;DHT22;8720;48.488;9.202;2023-06-14T07:37:52;35.90;18.40
17208;DHT22;8720;48.488;9.202;2023-06-14T07:40:20;35.90;18.60
17208;DHT22;8720;48.488;9.202;2023-06-14T07:42:47;36.00;18.70
17208;DHT22;8720;48.488;9.202;2023-06-14T07:45:16;36.00;18.70
17208;DHT22;8720;48.488;9.202;2023-06-14T07:47:43;36.10;18.60
17208;DHT22;8720;48.488;9.202;2023-06-14T07:50:11;36.10;18.40
17208;DHT22;8720;48.488;9.202;2023-06-14T07:52:40;36.20;18.10
17208;DHT22;8720;48.488;9.202;2023-06-14T07:55:08;36.20;17.90
17208;DHT22;8720;48.488;9.202;2023-06-14T07:57:35;36.30;18.00
17208;DHT22;8720;48.488;9.202;2023-06-14T08:00:04;36.20;18.00
17208;DHT22;8720;48.488;9.202;2023-06-14T08:02:38;36.20;18.10
17208;DHT22;8720;48.488;9.202;2023-06-14T08:05:05;36.10;18.10
17208;DHT22;8720;48.488;9.202;2023-06-14T08:07:33;36.00;18.40
17208;DHT22;8720;48.488;9.202;2023-06-14T08:10:02;35.90;18.50
17208;DHT22;8720;48.488;9.202;2023-06-14T08:12:30;35.90;18.40
17208;DHT22;8720;48.488;9.202;2023-06-14T08:14:57;35.80;18.40
17208;DHT22;8720;48.488;9.202;2023-06-14T08:17:25;35.60;18.40
17208;DHT22;8720;48.488;9.202;2023-06-14T08:19:52;35.30;18.60
17208;DHT22;8720;48.488;9.202;2023-06-14T08:22:22;34.90;18.70
17208;DHT22;8720;48.488;9.202;2023-06-14T08:24:51;34.60;18.90
17208;DHT22;8720;48.488;9.202;2023-06-14T08:27:21;34.30;19.00
17208;DHT22;8720;48.488;9.202;2023-06-14T08:29:48;34.10;19.20
17208;DHT22;8720;48.488;9.202;2023-06-14T08:32:16;33.80;19.30
17208;DHT22;8720;48.488;9.202;2023-06-14T08:34:43;33.60;19.20
17208;DHT22;8720;48.488;9.202;2023-06-14T08:37:11;33.40;19.30
17208;DHT22;8720;48.488;9.202;2023-06-14T08:39:38;33.10;19.30
17208;DHT22;8720;48.488;9.202;2023-06-14T08:42:07;32.90;19.50
17208;DHT22;8720;48.488;9.202;2023-06-14T08:44:37;32.70;19.80
17208;DHT22;8720;48.488;9.202;2023-06-14T08:47:06;32.40;19.80
17208;DHT22;8720;48.488;9.202;2023-06-14T08:49:36;32.20;20.10
17208;DHT22;8720;48.488;9.202;2023-06-14T08:52:08;31.90;20.00
17208;DHT22;8720;48.488;9.202;2023-06-14T08:54:38;31.70;20.20
17208;DHT22;8720;48.488;9.202;2023-06-14T08:57:10;31.50;20.30
17208;DHT22;8720;48.488;9.202;2023-06-14T08:59:47;31.30;20.50
17208;DHT22;8720;48.488;9.202;2023-06-14T09:02:18;31.20;20.50
17208;DHT22;8720;48.488;9.202;2023-06-14T09:04:48;31.00;20.50
17208;DHT22;8720;48.488;9.202;2023-06-14T09:07:16;30.90;20.60
17208;DHT22;8720;48.488;9.202;2023-06-14T09:09:44;30.60;20.70
17208;DHT22;8720;48.488;9.202;2023-06-14T09:12:11;30.30;21.00
17208;DHT22;8720;48.488;9.202;2023-06-14T09:14:38;30.10;21.00
17208;DHT22;8720;48.488;9.202;2023-06-14T09:17:13;29.80;21.40
17208;DHT22;8720;48.488;9.202;2023-06-14T09:19:40;29.60;21.50
17208;DHT22;8720;48.488;9.202;2023-06-14T09:22:08;29.40;21.50
17208;DHT22;8720;48.488;9.202;2023-06-14T09:24:37;29.30;21.60
17208;DHT22;8720;48.488;9.202;2023-06-14T09:27:06;29.10;21.70
17208;DHT22;8720;48.488;9.202;2023-06-14T09:29:33;28.80;21.90
17208;DHT22;8720;48.488;9.202;2023-06-14T09:32:01;28.60;22.00
17208;DHT22;8720;48.488;9.202;2023-06-14T09:34:30;28.40;22.20
17208;DHT22;8720;48.488;9.202;2023-06-14T09:36:57;28.30;22.30
17208;DHT22;8720;48.488;9.202;2023-06-14T09:39:25;28.10;22.60
17208;DHT22;8720;48.488;9.202;2023-06-14T09:41:53;27.90;22.50
17208;DHT22;8720;48.488;9.202;2023-06-14T09:44:20;27.80;22.50
17208;DHT22;8720;48.488;9.202;2023-06-14T09:46:50;27.80;22.50
17208;DHT22;8720;48.488;9.202;2023-06-14T09:49:19;27.70;22.60
17208;DHT22;8720;48.488;9.202;2023-06-14T09:51:50;27.70;22.70
17208;DHT22;8720;48.488;9.202;2023-06-14T09:54:22;27.60;22.50
17208;DHT22;8720;48.488;9.202;2023-06-14T09:56:52;27.60;22.70
17208;DHT22;8720;48.488;9.202;2023-06-14T09:59:22;27.50;22.70
17208;DHT22;8720;48.488;9.202;2023-06-14T10:01:57;27.50;22.60
17208;DHT22;8720;48.488;9.202;2023-06-14T10:04:29;27.40;21.90
17208;DHT22;8720;48.488;9.202;2023-06-14T10:07:00;27.30;22.50
17208;DHT22;8720;48.488;9.202;2023-06-14T10:09:30;27.30;22.40
17208;DHT22;8720;48.488;9.202;2023-06-14T10:11:57;27.20;22.50
17208;DHT22;8720;48.488;9.202;2023-06-14T10:14:26;27.10;22.30
17208;DHT22;8720;48.488;9.202;2023-06-14T10:17:02;27.10;22.40
17208;DHT22;8720;48.488;9.202;2023-06-14T10:19:37;27.10;22.50
17208;DHT22;8720;48.488;9.202;2023-06-14T10:22:17;27.00;22.40
17208;DHT22;8720;48.488;9.202;2023-06-14T10:24:50;27.00;22.50
17208;DHT22;8720;48.488;9.202;2023-06-14T10:27:18;27.00;22.70
17208;DHT22;8720;48.488;9.202;2023-06-14T10:30:08;27.00;22.70
17208;DHT22;8720;48.488;9.202;2023-06-14T10:33:05;26.90;22.90
17208;DHT22;8720;48.488;9.202;2023-06-14T10:35:34;26.90;23.00
17208;DHT22;8720;48.488;9.202;2023-06-14T10:38:10;26.90;23.00
17208;DHT22;8720;48.488;9.202;2023-06-14T10:40:39;26.90;23.60
17208;DHT22;8720;48.488;9.202;2023-06-14T10:43:21;26.90;23.00
17208;DHT22;8720;48.488;9.202;2023-06-14T10:46:13;26.80;23.20
17208;DHT22;8720;48.488;9.202;2023-06-14T10:48:41;26.90;23.10
17208;DHT22;8720;48.488;9.202;2023-06-14T10:51:16;26.90;23.10
17208;DHT22;8720;48.488;9.202;2023-06-14T10:53:48;26.90;22.90
17208;DHT22;8720;48.488;9.202;2023-06-14T10:56:29;26.90;23.00
17208;DHT22;8720;48.488;9.202;2023-06-14T10:58:58;26.90;23.80
17208;DHT22;8720;48.488;9.202;2023-06-14T11:01:35;26.90;23.20
17208;DHT22;8720;48.488;9.202;2023-06-14T11:04:08;26.80;23.10
17208;DHT22;8720;48.488;9.202;2023-06-14T11:06:45;26.80;23.10
17208;DHT22;8720;48.488;9.202;2023-06-14T11:09:38;26.70;23.10
17208;DHT22;8720;48.488;9.202;2023-06-14T11:12:21;26.70;23.00
17208;DHT22;8720;48.488;9.202;2023-06-14T11:14:52;26.70;23.10
17208;DHT22;8720;48.488;9.202;2023-06-14T11:17:19;26.70;23.10
17208;DHT22;8720;48.488;9.202;2023-06-14T11:19:47;26.70;23.10
17208;DHT22;8720;48.488;9.202;2023-06-14T11:22:14;26.80;23.10
17208;DHT22;8720;48.488;9.202;2023-06-14T11:24:44;26.80;23.40
17208;DHT22;8720;48.488;9.202;2023-06-14T11:27:11;26.90;23.40
17208;DHT22;8720;48.488;9.202;2023-06-14T11:29:48;26.90;23.40
17208;DHT22;8720;48.488;9.202;2023-06-14T11:32:15;26.90;23.40
17208;DHT22;8720;48.488;9.202;2023-06-14T11:34:46;26.90;23.30
17208;DHT22;8720;48.488;9.202;2023-06-14T11:37:13;26.90;22.70
17208;DHT22;8720;48.488;9.202;2023-06-14T11:39:44;26.90;22.80
17208;DHT22;8720;48.488;9.202;2023-06-14T11:42:14;26.90;22.90
17208;DHT22;8720;48.488;9.202;2023-06-14T11:44:42;26.90;22.70
17208;DHT22;8720;48.488;9.202;2023-06-14T11:47:12;26.90;22.90
17208;DHT22;8720;48.488;9.202;2023-06-14T11:49:40;26.90;22.90
17208;DHT22;8720;48.488;9.202;2023-06-14T11:52:07;26.90;23.00
17208;DHT22;8720;48.488;9.202;2023-06-14T11:54:35;26.90;23.20
17208;DHT22;8720;48.488;9.202;2023-06-14T11:57:05;26.90;23.20
17208;DHT22;8720;48.488;9.202;2023-06-14T11:59:38;26.90;23.30
17208;DHT22;8720;48.488;9.202;2023-06-14T12:02:06;27.00;23.30
17208;DHT22;8720;48.488;9.202;2023-06-14T12:04:34;27.00;23.10
17208;DHT22;8720;48.488;9.202;2023-06-14T12:07:09;26.90;23.00
17208;DHT22;8720;48.488;9.202;2023-06-14T12:09:38;26.90;23.00
17208;DHT22;8720;48.488;9.202;2023-06-14T12:12:07;26.80;23.00
17208;DHT22;8720;48.488;9.202;2023-06-14T12:14:36;26.70;23.20
17208;DHT22;8720;48.488;9.202;2023-06-14T12:17:04;26.70;22.80
17208;DHT22;8720;48.488;9.202;2023-06-14T12:19:33;26.70;23.00
17208;DHT22;8720;48.488;9.202;2023-06-14T12:22:10;26.70;23.00
17208;DHT22;8720;48.488;9.202;2023-06-14T12:24:38;26.70;23.10
17208;DHT22;8720;48.488;9.202;2023-06-14T12:27:07;26.70;23.10
17208;DHT22;8720;48.488;9.202;2023-06-14T12:29:37;26.70;23.40
17208;DHT22;8720;48.488;9.202;2023-06-14T12:32:05;26.70;22.80
17208;DHT22;8720;48.488;9.202;2023-06-14T12:34:33;26.60;22.70
17208;DHT22;8720;48.488;9.202;2023-06-14T12:37:01;26.70;23.10
17208;DHT22;8720;48.488;9.202;2023-06-14T12:39:29;26.70;23.10
17208;DHT22;8720;48.488;9.202;2023-06-14T12:41:58;26.70;23.10
17208;DHT22;8720;48.488;9.202;2023-06-14T12:44:27;26.70;23.10
17208;DHT22;8720;48.488;9.202;2023-06-14T12:46:55;26.70;23.10
17208;DHT22;8720;48.488;9.202;2023-06-14T12:49:22;26.70;23.20
17208;DHT22;8720;48.488;9.202;2023-06-14T12:51:49;26.70;23.30
17208;DHT22;8720;48.488;9.202;2023-06-14T12:54:16;26.70;23.30
17208;DHT22;8720;48.488;9.202;2023-06-14T12:56:44;26.70;23.30
17208;DHT22;8720;48.488;9.202;2023-06-14T12:59:11;26.70;23.40
17208;DHT22;8720;48.488;9.202;2023-06-14T13:01:40;26.80;23.50
17208;DHT22;8720;48.488;9.202;2023-06-14T13:04:07;26.80;23.30
17208;DHT22;8720;48.488;9.202;2023-06-14T13:06:35;26.90;23.30
17208;DHT22;8720;48.488;9.202;2023-06-14T13:09:03;26.90;23.20
17208;DHT22;8720;48.488;9.202;2023-06-14T13:11:31;26.90;23.30
17208;DHT22;8720;48.488;9.202;2023-06-14T13:13:58;26.90;23.30
17208;DHT22;8720;48.488;9.202;2023-06-14T13:16:25;27.00;23.40
17208;DHT22;8720;48.488;9.202;2023-06-14T13:18:54;26.90;23.30
17208;DHT22;8720;48.488;9.202;2023-06-14T13:21:21;26.90;23.30
17208;DHT22;8720;48.488;9.202;2023-06-14T13:23:49;27.00;23.40
17208;DHT22;8720;48.488;9.202;2023-06-14T13:26:16;26.90;23.50
17208;DHT22;8720;48.488;9.202;2023-06-14T13:28:44;26.90;23.50
17208;DHT22;8720;48.488;9.202;2023-06-14T13:31:11;27.00;23.60
17208;DHT22;8720;48.488;9.202;2023-06-14T13:33:38;27.00;23.60
17208;DHT22;8720;48.488;9.202;2023-06-14T13:36:07;27.00;23.50
17208;DHT22;8720;48.488;9.202;2023-06-14T13:38:35;27.00;23.70
17208;DHT22;8720;48.488;9.202;2023-06-14T13:41:03;27.00;23.60
17208;DHT22;8720;48.488;9.202;2023-06-14T13:43:30;27.00;23.50
17208;DHT22;8720;48.488;9.202;2023-06-14T13:45:58;27.00;23.50
17208;DHT22;8720;48.488;9.202;2023-06-14T13:48:25;27.00;23.40
17208;DHT22;8720;48.488;9.202;2023-06-14T13:50:53;27.00;23.40
17208;DHT22;8720;48.488;9.202;2023-06-14T13:53:24;26.90;23.50
17208;DHT22;8720;48.488;9.202;2023-06-14T13:55:52;26.90;23.40
17208;DHT22;8720;48.488;9.202;2023-06-14T13:58:19;27.00;23.50
17208;DHT22;8720;48.488;9.202;2023-06-14T14:00:47;27.00;23.30
17208;DHT22;8720;48.488;9.202;2023-06-14T14:03:14;27.00;23.30
17208;DHT22;8720;48.488;9.202;2023-06-14T14:05:41;27.00;23.30
17208;DHT22;8720;48.488;9.202;2023-06-14T14:08:09;27.00;23.20
17208;DHT22;8720;48.488;9.202;2023-06-14T14:10:38;27.00;23.00
17208;DHT22;8720;48.488;9.202;2023-06-14T14:13:05;27.00;22.90
17208;DHT22;8720;48.488;9.202;2023-06-14T14:15:32;27.10;23.00
17208;DHT22;8720;48.488;9.202;2023-06-14T14:18:00;27.10;23.50
17208;DHT22;8720;48.488;9.202;2023-06-14T14:20:30;27.10;22.90
17208;DHT22;8720;48.488;9.202;2023-06-14T14:22:57;27.10;22.90
17208;DHT22;8720;48.488;9.202;2023-06-14T14:25:24;27.00;23.10
17208;DHT22;8720;48.488;9.202;2023-06-14T14:27:53;27.00;23.30
17208;DHT22;8720;48.488;9.202;2023-06-14T14:30:21;27.00;23.40
17208;DHT22;8720;48.488;9.202;2023-06-14T14:32:49;27.00;23.50
17208;DHT22;8720;48.488;9.202;2023-06-14T14:35:17;27.00;23.40
17208;DHT22;8720;48.488;9.202;2023-06-14T14:37:44;26.90;23.40
17208;DHT22;8720;48.488;9.202;2023-06-14T14:40:12;26.90;23.30
17208;DHT22;8720;48.488;9.202;2023-06-14T14:42:40;26.90;23.40
17208;DHT22;8720;48.488;9.202;2023-06-14T14:45:09;26.90;23.40
17208;DHT22;8720;48.488;9.202;2023-06-14T14:47:37;26.90;23.30
17208;DHT22;8720;48.488;9.202;2023-06-14T14:50:05;26.90;23.30
17208;DHT22;8720;48.488;9.202;2023-06-14T14:52:34;26.90;23.30
17208;DHT22;8720;48.488;9.202;2023-06-14T14:55:02;26.90;23.30
17208;DHT22;8720;48.488;9.202;2023-06-14T14:57:30;26.90;23.20
17208;DHT22;8720;48.488;9.202;2023-06-14T14:59:58;26.90;23.20
17208;DHT22;8720;48.488;9.202;2023-06-14T15:02:27;26.90;23.20
17208;DHT22;8720;48.488;9.202;2023-06-14T15:04:54;26.90;23.30
17208;DHT22;8720;48.488;9.202;2023-06-14T15:07:26;27.00;23.30
17208;DHT22;8720;48.488;9.202;2023-06-14T15:09:54;27.00;23.40
17208;DHT22;8720;48.488;9.202;2023-06-14T15:12:21;27.00;23.60
17208;DHT22;8720;48.488;9.202;2023-06-14T15:14:50;27.00;23.50
17208;DHT22;8720;48.488;9.202;2023-06-14T15:17:18;27.00;23.40
17208;DHT22;8720;48.488;9.202;2023-06-14T15:19:47;27.00;23.50
17208;DHT22;8720;48.488;9.202;2023-06-14T15:22:15;27.00;23.50
17208;DHT22;8720;48.488;9.202;2023-06-14T15:24:44;27.00;23.30
17208;DHT22;8720;48.488;9.202;2023-06-14T15:27:12;27.00;23.30
17208;DHT22;8720;48.488;9.202;2023-06-14T15:29:40;26.90;23.30
17208;DHT22;8720;48.488;9.202;2023-06-14T15:32:08;26.90;23.40
17208;DHT22;8720;48.488;9.202;2023-06-14T15:34:36;26.80;23.40
17208;DHT22;8720;48.488;9.202;2023-06-14T15:37:07;26.80;23.30
17208;DHT22;8720;48.488;9.202;2023-06-14T15:39:34;26.80;23.40
17208;DHT22;8720;48.488;9.202;2023-06-14T15:42:02;26.80;23.40
17208;DHT22;8720;48.488;9.202;2023-06-14T15:44:31;26.80;23.60
17208;DHT22;8720;48.488;9.202;2023-06-14T15:46:58;26.90;23.70
17208;DHT22;8720;48.488;9.202;2023-06-14T15:49:26;26.80;23.70
17208;DHT22;8720;48.488;9.202;2023-06-14T15:51:53;26.90;23.60
17208;DHT22;8720;48.488;9.202;2023-06-14T15:54:22;27.00;23.70
17208;DHT22;8720;48.488;9.202;2023-06-14T15:56:49;27.00;23.70
17208;DHT22;8720;48.488;9.202;2023-06-14T15:59:17;27.00;23.80
17208;DHT22;8720;48.488;9.202;2023-06-14T16:01:44;27.00;23.90